sensor_id;sensor_type;location;lat;lon;timestamp;pressure;altitude;pressure_sealevel;temperature;humidity
68996;BME280;56056;48.990;12.146;2022-07-06T00:02:02;98030.94;;;19.04;43.69
68996;BME280;56056;48.990;12.146;2022-07-06T00:04:28;98040.75;;;19.03;43.52
68996;BME280;56056;48.990;12.146;2022-07-06T00:06:54;98036.69;;;19.01;43.53
68996;BME280;56056;48.990;12.146;2022-07-06T00:09:20;98036.34;;;18.97;43.44
68996;BME280;56056;48.990;12.146;2022-07-06T00:11:46;98036.16;;;18.92;43.55
68996;BME280;56056;48.990;12.146;2022-07-06T00:14:11;98032.31;;;18.88;43.88
68996;BME280;56056;48.990;12.146;2022-07-06T00:16:37;98029.47;;;18.90;43.73
68996;BME280;56056;48.990;12.146;2022-07-06T00:19:03;98025.53;;;18.92;43.58
68996;BME280;56056;48.990;12.146;2022-07-06T00:21:28;98037.72;;;19.00;43.81
68996;BME280;56056;48.990;12.146;2022-07-06T00:23:54;98030.56;;;19.00;43.66
68996;BME280;56056;48.990;12.146;2022-07-06T00:26:20;98029.59;;;18.95;44.30
68996;BME280;56056;48.990;12.146;2022-07-06T00:28:46;98035.22;;;18.87;44.17
68996;BME280;56056;48.990;12.146;2022-07-06T00:31:11;98042.41;;;18.79;44.30
68996;BME280;56056;48.990;12.146;2022-07-06T00:33:37;98036.09;;;18.74;44.28
68996;BME280;56056;48.990;12.146;2022-07-06T00:36:03;98037.78;;;18.68;44.39
68996;BME280;56056;48.990;12.146;2022-07-06T00:38:28;98036.97;;;18.68;44.61
68996;BME280;56056;48.990;12.146;2022-07-06T00:40:54;98035.34;;;18.67;44.05
68996;BME280;56056;48.990;12.146;2022-07-06T00:43:21;98035.34;;;18.67;44.43
68996;BME280;56056;48.990;12.146;2022-07-06T00:45:46;98033.31;;;18.62;45.04
68996;BME280;56056;48.990;12.146;2022-07-06T00:48:12;98031.91;;;18.60;44.20
68996;BME280;56056;48.990;12.146;2022-07-06T00:50:37;98036.44;;;18.59;44.43
68996;BME280;56056;48.990;12.146;2022-07-06T00:53:05;98037.44;;;18.58;44.78
68996;BME280;56056;48.990;12.146;2022-07-06T00:55:33;98033.38;;;18.55;44.53
68996;BME280;56056;48.990;12.146;2022-07-06T00:58:00;98032.56;;;18.55;44.23
68996;BME280;56056;48.990;12.146;2022-07-06T01:00:28;98032.00;;;18.46;44.12
68996;BME280;56056;48.990;12.146;2022-07-06T01:02:54;98029.72;;;18.50;44.37
68996;BME280;56056;48.990;12.146;2022-07-06T01:05:20;98029.34;;;18.46;44.73
68996;BME280;56056;48.990;12.146;2022-07-06T01:07:47;98030.59;;;18.44;44.77
68996;BME280;56056;48.990;12.146;2022-07-06T01:10:14;98025.34;;;18.37;45.13
68996;BME280;56056;48.990;12.146;2022-07-06T01:12:41;98027.44;;;18.28;45.53
68996;BME280;56056;48.990;12.146;2022-07-06T01:15:08;98034.41;;;18.23;45.86
68996;BME280;56056;48.990;12.146;2022-07-06T01:17:38;98028.78;;;18.13;46.65
68996;BME280;56056;48.990;12.146;2022-07-06T01:20:10;98029.19;;;18.09;46.54
68996;BME280;56056;48.990;12.146;2022-07-06T01:22:36;98023.75;;;17.98;46.47
68996;BME280;56056;48.990;12.146;2022-07-06T01:25:02;98024.41;;;17.87;47.22
68996;BME280;56056;48.990;12.146;2022-07-06T01:27:27;98030.56;;;17.80;48.08
68996;BME280;56056;48.990;12.146;2022-07-06T01:29:52;98020.16;;;17.72;49.24
68996;BME280;56056;48.990;12.146;2022-07-06T01:32:18;98020.38;;;17.71;49.72
68996;BME280;56056;48.990;12.146;2022-07-06T01:34:43;98016.69;;;17.72;49.48
68996;BME280;56056;48.990;12.146;2022-07-06T01:37:10;98022.00;;;17.72;49.55
68996;BME280;56056;48.990;12.146;2022-07-06T01:39:35;98014.25;;;17.70;49.79
68996;BME280;56056;48.990;12.146;2022-07-06T01:42:01;98014.25;;;17.70;50.03
68996;BME280;56056;48.990;12.146;2022-07-06T01:44:27;98015.91;;;17.65;50.01
68996;BME280;56056;48.990;12.146;2022-07-06T01:46:53;98010.81;;;17.63;50.42
68996;BME280;56056;48.990;12.146;2022-07-06T01:49:18;98021.84;;;17.53;50.99
68996;BME280;56056;48.990;12.146;2022-07-06T01:51:43;98022.50;;;17.49;51.06
68996;BME280;56056;48.990;12.146;2022-07-06T01:54:10;98014.34;;;17.44;50.90
68996;BME280;56056;48.990;12.146;2022-07-06T01:56:36;98013.16;;;17.40;50.67
68996;BME280;56056;48.990;12.146;2022-07-06T01:59:01;98018.88;;;17.36;50.79
68996;BME280;56056;48.990;12.146;2022-07-06T02:01:27;98023.75;;;17.33;50.89
68996;BME280;56056;48.990;12.146;2022-07-06T02:03:52;98020.94;;;17.28;51.04
68996;BME280;56056;48.990;12.146;2022-07-06T02:06:18;98016.03;;;17.25;51.26
68996;BME280;56056;48.990;12.146;2022-07-06T02:08:44;98005.84;;;17.15;52.03
68996;BME280;56056;48.990;12.146;2022-07-06T02:11:10;98017.72;;;17.13;52.28
68996;BME280;56056;48.990;12.146;2022-07-06T02:13:36;98013.63;;;17.10;52.57
68996;BME280;56056;48.990;12.146;2022-07-06T02:16:03;98014.84;;;17.07;52.69
68996;BME280;56056;48.990;12.146;2022-07-06T02:18:29;98003.66;;;16.99;52.73
68996;BME280;56056;48.990;12.146;2022-07-06T02:20:54;98022.59;;;17.09;52.71
68996;BME280;56056;48.990;12.146;2022-07-06T02:23:20;98027.50;;;17.05;52.62
68996;BME280;56056;48.990;12.146;2022-07-06T02:25:46;98029.13;;;17.06;53.14
68996;BME280;56056;48.990;12.146;2022-07-06T02:28:12;98023.81;;;17.06;52.98
68996;BME280;56056;48.990;12.146;2022-07-06T02:30:38;98023.22;;;16.98;52.08
68996;BME280;56056;48.990;12.146;2022-07-06T02:33:03;98032.84;;;16.92;51.57
68996;BME280;56056;48.990;12.146;2022-07-06T02:35:29;98026.50;;;16.86;51.85
68996;BME280;56056;48.990;12.146;2022-07-06T02:37:54;98016.53;;;16.89;52.20
68996;BME280;56056;48.990;12.146;2022-07-06T02:40:20;98021.00;;;16.95;52.14
68996;BME280;56056;48.990;12.146;2022-07-06T02:42:45;98022.59;;;16.96;51.71
68996;BME280;56056;48.990;12.146;2022-07-06T02:45:12;98027.09;;;16.95;51.08
68996;BME280;56056;48.990;12.146;2022-07-06T02:47:37;98032.63;;;16.94;51.00
68996;BME280;56056;48.990;12.146;2022-07-06T02:50:03;98032.41;;;16.95;50.79
68996;BME280;56056;48.990;12.146;2022-07-06T02:52:29;98038.09;;;16.99;50.68
68996;BME280;56056;48.990;12.146;2022-07-06T02:54:54;98037.69;;;17.02;50.69
68996;BME280;56056;48.990;12.146;2022-07-06T02:57:20;98039.34;;;16.96;49.90
68996;BME280;56056;48.990;12.146;2022-07-06T02:59:46;98044.25;;;16.93;50.49
68996;BME280;56056;48.990;12.146;2022-07-06T03:02:12;98046.91;;;16.93;50.32
68996;BME280;56056;48.990;12.146;2022-07-06T03:04:38;98061.75;;;16.94;49.83
68996;BME280;56056;48.990;12.146;2022-07-06T03:07:03;98055.84;;;16.92;49.97
68996;BME280;56056;48.990;12.146;2022-07-06T03:09:29;98067.09;;;16.80;50.47
68996;BME280;56056;48.990;12.146;2022-07-06T03:11:54;98069.50;;;16.75;50.42
68996;BME280;56056;48.990;12.146;2022-07-06T03:14:19;98076.19;;;16.71;50.88
68996;BME280;56056;48.990;12.146;2022-07-06T03:16:45;98074.75;;;16.69;51.00
68996;BME280;56056;48.990;12.146;2022-07-06T03:19:12;98087.00;;;16.70;51.27
68996;BME280;56056;48.990;12.146;2022-07-06T03:21:37;98088.84;;;16.69;51.61
68996;BME280;56056;48.990;12.146;2022-07-06T03:24:04;98085.34;;;16.69;51.70
68996;BME280;56056;48.990;12.146;2022-07-06T03:26:29;98086.00;;;16.71;51.75
68996;BME280;56056;48.990;12.146;2022-07-06T03:28:55;98083.72;;;16.61;51.65
68996;BME280;56056;48.990;12.146;2022-07-06T03:31:20;98082.72;;;16.62;51.43
68996;BME280;56056;48.990;12.146;2022-07-06T03:33:45;98086.38;;;16.61;51.20
68996;BME280;56056;48.990;12.146;2022-07-06T03:36:12;98091.09;;;16.66;51.03
68996;BME280;56056;48.990;12.146;2022-07-06T03:38:38;98089.84;;;16.68;51.32
68996;BME280;56056;48.990;12.146;2022-07-06T03:41:03;98081.91;;;16.68;51.37
68996;BME280;56056;48.990;12.146;2022-07-06T03:43:29;98089.84;;;16.68;51.12
68996;BME280;56056;48.990;12.146;2022-07-06T03:45:56;98092.72;;;16.67;51.41
68996;BME280;56056;48.990;12.146;2022-07-06T03:48:22;98091.34;;;16.77;51.88
68996;BME280;56056;48.990;12.146;2022-07-06T03:50:47;98088.88;;;16.82;51.62
68996;BME280;56056;48.990;12.146;2022-07-06T03:53:14;98088.47;;;16.85;51.74
68996;BME280;56056;48.990;12.146;2022-07-06T03:55:40;98090.28;;;16.92;51.63
68996;BME280;56056;48.990;12.146;2022-07-06T03:58:05;98087.47;;;17.00;52.16
68996;BME280;56056;48.990;12.146;2022-07-06T04:00:30;98085.81;;;17.12;52.24
68996;BME280;56056;48.990;12.146;2022-07-06T04:02:56;98100.06;;;17.24;52.24
68996;BME280;56056;48.990;12.146;2022-07-06T04:05:21;98100.66;;;17.26;52.13
68996;BME280;56056;48.990;12.146;2022-07-06T04:07:48;98096.00;;;17.28;52.20
68996;BME280;56056;48.990;12.146;2022-07-06T04:10:15;98102.50;;;17.32;51.90
68996;BME280;56056;48.990;12.146;2022-07-06T04:12:41;98104.13;;;17.40;51.34
68996;BME280;56056;48.990;12.146;2022-07-06T04:15:07;98102.47;;;17.46;51.39
68996;BME280;56056;48.990;12.146;2022-07-06T04:17:32;98105.34;;;17.51;51.34
68996;BME280;56056;48.990;12.146;2022-07-06T04:20:17;98100.22;;;17.56;50.74
68996;BME280;56056;48.990;12.146;2022-07-06T04:22:43;98101.22;;;17.61;51.08
68996;BME280;56056;48.990;12.146;2022-07-06T04:25:09;98115.09;;;17.70;50.23
68996;BME280;56056;48.990;12.146;2022-07-06T04:27:36;98109.34;;;17.73;49.81
68996;BME280;56056;48.990;12.146;2022-07-06T04:30:02;98101.81;;;17.70;49.92
68996;BME280;56056;48.990;12.146;2022-07-06T04:32:28;98123.25;;;17.82;49.48
68996;BME280;56056;48.990;12.146;2022-07-06T04:34:53;98121.19;;;17.84;49.19
68996;BME280;56056;48.990;12.146;2022-07-06T04:37:18;98122.41;;;17.88;49.21
68996;BME280;56056;48.990;12.146;2022-07-06T04:39:44;98121.97;;;17.98;48.96
68996;BME280;56056;48.990;12.146;2022-07-06T04:42:09;98119.28;;;18.04;48.95
68996;BME280;56056;48.990;12.146;2022-07-06T04:44:36;98125.59;;;18.10;48.81
68996;BME280;56056;48.990;12.146;2022-07-06T04:47:02;98120.03;;;18.18;48.37
68996;BME280;56056;48.990;12.146;2022-07-06T04:49:27;98122.66;;;18.25;48.40
68996;BME280;56056;48.990;12.146;2022-07-06T04:51:52;98133.47;;;18.30;48.35
68996;BME280;56056;48.990;12.146;2022-07-06T04:54:18;98132.00;;;18.34;48.16
68996;BME280;56056;48.990;12.146;2022-07-06T04:56:43;98134.22;;;18.44;48.16
68996;BME280;56056;48.990;12.146;2022-07-06T04:59:09;98133.53;;;18.55;47.63
68996;BME280;56056;48.990;12.146;2022-07-06T05:01:35;98132.25;;;18.64;47.94
68996;BME280;56056;48.990;12.146;2022-07-06T05:04:01;98143.66;;;18.78;47.33
68996;BME280;56056;48.990;12.146;2022-07-06T05:06:26;98131.09;;;18.85;46.64
68996;BME280;56056;48.990;12.146;2022-07-06T05:08:52;98137.03;;;18.87;46.98
68996;BME280;56056;48.990;12.146;2022-07-06T05:11:17;98133.16;;;18.90;46.87
68996;BME280;56056;48.990;12.146;2022-07-06T05:13:43;98135.97;;;18.95;46.49
68996;BME280;56056;48.990;12.146;2022-07-06T05:16:09;98134.06;;;19.02;46.63
68996;BME280;56056;48.990;12.146;2022-07-06T05:18:35;98144.28;;;19.05;46.55
68996;BME280;56056;48.990;12.146;2022-07-06T05:21:01;98149.75;;;19.10;46.27
68996;BME280;56056;48.990;12.146;2022-07-06T05:23:26;98155.03;;;19.17;46.25
68996;BME280;56056;48.990;12.146;2022-07-06T05:25:53;98153.84;;;19.31;46.38
68996;BME280;56056;48.990;12.146;2022-07-06T05:28:18;98153.19;;;19.36;46.25
68996;BME280;56056;48.990;12.146;2022-07-06T05:30:44;98155.16;;;19.47;46.02
68996;BME280;56056;48.990;12.146;2022-07-06T05:33:09;98164.16;;;19.46;44.77
68996;BME280;56056;48.990;12.146;2022-07-06T05:35:36;98160.69;;;19.45;44.94
68996;BME280;56056;48.990;12.146;2022-07-06T05:38:02;98163.50;;;19.50;45.16
68996;BME280;56056;48.990;12.146;2022-07-06T05:40:27;98160.84;;;19.75;44.89
68996;BME280;56056;48.990;12.146;2022-07-06T05:42:53;98162.03;;;20.16;43.46
68996;BME280;56056;48.990;12.146;2022-07-06T05:45:19;98164.72;;;20.46;43.25
68996;BME280;56056;48.990;12.146;2022-07-06T05:47:44;98164.47;;;20.48;42.72
68996;BME280;56056;48.990;12.146;2022-07-06T05:50:28;98166.81;;;20.74;41.86
68996;BME280;56056;48.990;12.146;2022-07-06T05:52:59;98165.31;;;21.20;41.07
68996;BME280;56056;48.990;12.146;2022-07-06T05:55:26;98144.81;;;21.33;40.04
68996;BME280;56056;48.990;12.146;2022-07-06T05:57:51;98154.63;;;21.20;40.38
68996;BME280;56056;48.990;12.146;2022-07-06T06:00:19;98151.50;;;21.12;40.63
68996;BME280;56056;48.990;12.146;2022-07-06T06:02:44;98153.41;;;21.35;40.33
68996;BME280;56056;48.990;12.146;2022-07-06T06:05:10;98150.47;;;21.83;39.57
68996;BME280;56056;48.990;12.146;2022-07-06T06:07:36;98154.97;;;22.06;38.98
68996;BME280;56056;48.990;12.146;2022-07-06T06:10:05;98150.41;;;22.18;38.58
68996;BME280;56056;48.990;12.146;2022-07-06T06:12:31;98156.34;;;22.09;38.53
68996;BME280;56056;48.990;12.146;2022-07-06T06:14:56;98154.03;;;22.12;38.63
68996;BME280;56056;48.990;12.146;2022-07-06T06:17:22;98147.31;;;21.98;38.88
68996;BME280;56056;48.990;12.146;2022-07-06T06:19:47;98160.22;;;22.01;39.08
68996;BME280;56056;48.990;12.146;2022-07-06T06:22:13;98163.16;;;21.88;39.52
68996;BME280;56056;48.990;12.146;2022-07-06T06:24:38;98165.69;;;21.83;39.66
68996;BME280;56056;48.990;12.146;2022-07-06T06:27:05;98160.94;;;22.37;39.20
68996;BME280;56056;48.990;12.146;2022-07-06T06:29:30;98164.47;;;22.83;37.36
68996;BME280;56056;48.990;12.146;2022-07-06T06:31:56;98155.59;;;23.11;37.38
68996;BME280;56056;48.990;12.146;2022-07-06T06:34:21;98153.25;;;23.48;36.16
68996;BME280;56056;48.990;12.146;2022-07-06T06:36:47;98158.75;;;23.75;35.73
68996;BME280;56056;48.990;12.146;2022-07-06T06:39:12;98158.59;;;24.04;35.24
68996;BME280;56056;48.990;12.146;2022-07-06T06:41:38;98152.47;;;24.30;34.38
68996;BME280;56056;48.990;12.146;2022-07-06T06:44:04;98156.38;;;24.39;34.19
68996;BME280;56056;48.990;12.146;2022-07-06T06:46:30;98159.09;;;24.67;33.65
68996;BME280;56056;48.990;12.146;2022-07-06T06:48:55;98156.59;;;24.60;33.30
68996;BME280;56056;48.990;12.146;2022-07-06T06:51:21;98154.91;;;24.81;32.87
68996;BME280;56056;48.990;12.146;2022-07-06T06:53:46;98155.69;;;25.08;32.40
68996;BME280;56056;48.990;12.146;2022-07-06T06:56:12;98155.06;;;25.28;32.46
68996;BME280;56056;48.990;12.146;2022-07-06T06:58:37;98154.47;;;25.58;31.88
68996;BME280;56056;48.990;12.146;2022-07-06T07:01:04;98148.47;;;25.41;31.23
68996;BME280;56056;48.990;12.146;2022-07-06T07:03:30;98157.38;;;25.15;32.42
68996;BME280;56056;48.990;12.146;2022-07-06T07:05:55;98153.28;;;25.39;31.76
68996;BME280;56056;48.990;12.146;2022-07-06T07:08:21;98156.28;;;25.85;31.84
68996;BME280;56056;48.990;12.146;2022-07-06T07:10:46;98153.94;;;25.56;31.00
68996;BME280;56056;48.990;12.146;2022-07-06T07:13:11;98159.31;;;25.56;32.16
68996;BME280;56056;48.990;12.146;2022-07-06T07:15:37;98159.13;;;25.73;31.74
68996;BME280;56056;48.990;12.146;2022-07-06T07:18:04;98153.69;;;25.63;31.42
68996;BME280;56056;48.990;12.146;2022-07-06T07:20:29;98158.81;;;25.65;32.08
68996;BME280;56056;48.990;12.146;2022-07-06T07:22:55;98155.31;;;26.12;31.56
68996;BME280;56056;48.990;12.146;2022-07-06T07:25:21;98168.25;;;26.15;30.71
68996;BME280;56056;48.990;12.146;2022-07-06T07:27:46;98157.28;;;26.37;31.08
68996;BME280;56056;48.990;12.146;2022-07-06T07:30:12;98163.09;;;26.76;30.80
68996;BME280;56056;48.990;12.146;2022-07-06T07:32:37;98170.66;;;26.99;30.15
68996;BME280;56056;48.990;12.146;2022-07-06T07:35:07;98160.44;;;27.12;29.72
68996;BME280;56056;48.990;12.146;2022-07-06T07:37:33;98163.69;;;27.19;28.81
68996;BME280;56056;48.990;12.146;2022-07-06T07:39:59;98172.25;;;27.05;28.73
68996;BME280;56056;48.990;12.146;2022-07-06T07:42:24;98170.41;;;27.16;29.09
68996;BME280;56056;48.990;12.146;2022-07-06T07:44:49;98167.16;;;26.99;29.18
68996;BME280;56056;48.990;12.146;2022-07-06T07:47:15;98173.31;;;26.89;29.23
68996;BME280;56056;48.990;12.146;2022-07-06T07:49:41;98167.41;;;27.07;28.55
68996;BME280;56056;48.990;12.146;2022-07-06T07:52:08;98165.28;;;27.50;28.64
68996;BME280;56056;48.990;12.146;2022-07-06T07:54:34;98175.50;;;27.69;28.25
68996;BME280;56056;48.990;12.146;2022-07-06T07:56:59;98167.72;;;27.11;28.20
68996;BME280;56056;48.990;12.146;2022-07-06T07:59:25;98171.47;;;27.25;28.77
68996;BME280;56056;48.990;12.146;2022-07-06T08:01:50;98170.69;;;27.45;27.76
68996;BME280;56056;48.990;12.146;2022-07-06T08:04:16;98179.53;;;27.82;27.69
68996;BME280;56056;48.990;12.146;2022-07-06T08:06:42;98169.16;;;28.19;27.92
68996;BME280;56056;48.990;12.146;2022-07-06T08:09:08;98168.94;;;28.65;26.54
68996;BME280;56056;48.990;12.146;2022-07-06T08:11:34;98159.59;;;28.92;25.83
68996;BME280;56056;48.990;12.146;2022-07-06T08:13:59;98162.81;;;28.99;25.74
68996;BME280;56056;48.990;12.146;2022-07-06T08:16:25;98164.91;;;29.07;25.49
68996;BME280;56056;48.990;12.146;2022-07-06T08:18:51;98167.94;;;29.00;24.08
68996;BME280;56056;48.990;12.146;2022-07-06T08:21:16;98162.63;;;28.80;24.10
68996;BME280;56056;48.990;12.146;2022-07-06T08:23:42;98163.06;;;29.03;24.38
68996;BME280;56056;48.990;12.146;2022-07-06T08:26:09;98166.25;;;29.39;23.09
68996;BME280;56056;48.990;12.146;2022-07-06T08:28:34;98174.72;;;29.61;23.45
68996;BME280;56056;48.990;12.146;2022-07-06T08:30:59;98168.69;;;29.69;22.56
68996;BME280;56056;48.990;12.146;2022-07-06T08:33:25;98165.09;;;29.79;23.32
68996;BME280;56056;48.990;12.146;2022-07-06T08:35:51;98173.03;;;29.94;21.65
68996;BME280;56056;48.990;12.146;2022-07-06T08:38:16;98163.88;;;29.66;22.31
68996;BME280;56056;48.990;12.146;2022-07-06T08:40:43;98166.69;;;29.80;22.58
68996;BME280;56056;48.990;12.146;2022-07-06T08:43:10;98172.94;;;30.29;22.72
68996;BME280;56056;48.990;12.146;2022-07-06T08:45:35;98179.72;;;30.26;22.53
68996;BME280;56056;48.990;12.146;2022-07-06T08:48:04;98170.16;;;30.10;22.10
68996;BME280;56056;48.990;12.146;2022-07-06T08:50:31;98172.97;;;30.00;21.50
68996;BME280;56056;48.990;12.146;2022-07-06T08:52:57;98172.09;;;29.80;21.46
68996;BME280;56056;48.990;12.146;2022-07-06T08:55:23;98181.78;;;29.86;21.84
68996;BME280;56056;48.990;12.146;2022-07-06T08:57:50;98174.25;;;30.31;21.27
68996;BME280;56056;48.990;12.146;2022-07-06T09:00:16;98172.13;;;30.28;20.76
68996;BME280;56056;48.990;12.146;2022-07-06T09:02:43;98169.00;;;30.40;21.00
68996;BME280;56056;48.990;12.146;2022-07-06T09:05:09;98169.81;;;30.40;20.67
68996;BME280;56056;48.990;12.146;2022-07-06T09:07:39;98173.28;;;30.22;21.43
68996;BME280;56056;48.990;12.146;2022-07-06T09:10:07;98169.28;;;30.38;21.60
68996;BME280;56056;48.990;12.146;2022-07-06T09:12:33;98171.13;;;30.62;21.58
68996;BME280;56056;48.990;12.146;2022-07-06T09:14:58;98171.06;;;30.86;20.96
68996;BME280;56056;48.990;12.146;2022-07-06T09:17:27;98175.06;;;30.51;20.03
68996;BME280;56056;48.990;12.146;2022-07-06T09:19:53;98174.78;;;30.09;20.69
68996;BME280;56056;48.990;12.146;2022-07-06T09:22:26;98166.56;;;30.38;21.31
68996;BME280;56056;48.990;12.146;2022-07-06T09:24:52;98170.75;;;29.83;20.99
68996;BME280;56056;48.990;12.146;2022-07-06T09:27:17;98177.00;;;29.78;22.04
68996;BME280;56056;48.990;12.146;2022-07-06T09:29:43;98177.81;;;30.03;21.14
68996;BME280;56056;48.990;12.146;2022-07-06T09:32:08;98164.00;;;29.51;22.37
68996;BME280;56056;48.990;12.146;2022-07-06T09:34:42;98168.78;;;29.88;21.57
68996;BME280;56056;48.990;12.146;2022-07-06T09:37:08;98174.88;;;29.75;21.11
68996;BME280;56056;48.990;12.146;2022-07-06T09:39:34;98169.16;;;29.47;21.96
68996;BME280;56056;48.990;12.146;2022-07-06T09:42:01;98156.81;;;29.94;21.17
68996;BME280;56056;48.990;12.146;2022-07-06T09:44:30;98150.69;;;29.84;22.32
68996;BME280;56056;48.990;12.146;2022-07-06T09:46:57;98146.50;;;30.39;21.54
68996;BME280;56056;48.990;12.146;2022-07-06T09:49:23;98157.72;;;30.70;20.99
68996;BME280;56056;48.990;12.146;2022-07-06T09:51:52;98163.25;;;31.36;19.91
68996;BME280;56056;48.990;12.146;2022-07-06T09:54:18;98160.59;;;31.50;19.14
68996;BME280;56056;48.990;12.146;2022-07-06T09:56:45;98158.63;;;31.04;19.98
68996;BME280;56056;48.990;12.146;2022-07-06T09:59:16;98167.13;;;30.59;20.69
68996;BME280;56056;48.990;12.146;2022-07-06T10:01:42;98161.09;;;30.25;21.39
68996;BME280;56056;48.990;12.146;2022-07-06T10:04:09;98157.03;;;29.74;22.04
68996;BME280;56056;48.990;12.146;2022-07-06T10:06:35;98162.25;;;30.37;21.24
68996;BME280;56056;48.990;12.146;2022-07-06T10:09:05;98152.53;;;30.36;20.68
68996;BME280;56056;48.990;12.146;2022-07-06T10:11:34;98156.28;;;30.78;20.57
68996;BME280;56056;48.990;12.146;2022-07-06T10:14:01;98143.97;;;30.48;20.35
68996;BME280;56056;48.990;12.146;2022-07-06T10:16:28;98157.50;;;30.05;20.72
68996;BME280;56056;48.990;12.146;2022-07-06T10:18:54;98152.56;;;29.30;20.95
68996;BME280;56056;48.990;12.146;2022-07-06T10:21:21;98162.31;;;29.31;20.90
68996;BME280;56056;48.990;12.146;2022-07-06T10:23:48;98155.06;;;28.82;20.32
68996;BME280;56056;48.990;12.146;2022-07-06T10:26:16;98149.38;;;29.23;19.74
68996;BME280;56056;48.990;12.146;2022-07-06T10:28:42;98154.38;;;29.69;20.21
68996;BME280;56056;48.990;12.146;2022-07-06T10:31:08;98148.06;;;29.20;19.55
68996;BME280;56056;48.990;12.146;2022-07-06T10:33:34;98155.47;;;28.60;21.28
68996;BME280;56056;48.990;12.146;2022-07-06T10:36:01;98156.94;;;28.42;21.02
68996;BME280;56056;48.990;12.146;2022-07-06T10:38:31;98160.78;;;28.21;20.55
68996;BME280;56056;48.990;12.146;2022-07-06T10:41:02;98154.91;;;29.08;19.75
68996;BME280;56056;48.990;12.146;2022-07-06T10:43:42;98147.38;;;30.16;18.18
68996;BME280;56056;48.990;12.146;2022-07-06T10:46:09;98151.97;;;31.29;17.59
68996;BME280;56056;48.990;12.146;2022-07-06T10:48:37;98141.66;;;32.05;17.35
68996;BME280;56056;48.990;12.146;2022-07-06T10:51:03;98143.03;;;32.44;16.69
68996;BME280;56056;48.990;12.146;2022-07-06T10:53:31;98142.75;;;33.04;15.33
68996;BME280;56056;48.990;12.146;2022-07-06T10:55:58;98149.53;;;32.93;16.03
68996;BME280;56056;48.990;12.146;2022-07-06T10:58:47;98157.31;;;32.35;15.92
68996;BME280;56056;48.990;12.146;2022-07-06T11:01:17;98142.94;;;32.21;16.63
68996;BME280;56056;48.990;12.146;2022-07-06T11:03:43;98155.03;;;31.87;15.72
68996;BME280;56056;48.990;12.146;2022-07-06T11:06:11;98143.63;;;32.41;16.23
68996;BME280;56056;48.990;12.146;2022-07-06T11:08:52;98148.19;;;33.26;14.81
68996;BME280;56056;48.990;12.146;2022-07-06T11:11:19;98163.13;;;32.93;15.25
68996;BME280;56056;48.990;12.146;2022-07-06T11:13:52;98172.81;;;32.07;16.34
68996;BME280;56056;48.990;12.146;2022-07-06T11:16:18;98154.09;;;32.33;16.29
68996;BME280;56056;48.990;12.146;2022-07-06T11:18:48;98148.56;;;32.75;15.89
68996;BME280;56056;48.990;12.146;2022-07-06T11:21:19;98153.06;;;33.38;14.58
68996;BME280;56056;48.990;12.146;2022-07-06T11:23:46;98156.31;;;32.45;14.75
68996;BME280;56056;48.990;12.146;2022-07-06T11:26:13;98158.09;;;31.53;16.34
68996;BME280;56056;48.990;12.146;2022-07-06T11:28:38;98160.97;;;30.91;17.19
68996;BME280;56056;48.990;12.146;2022-07-06T11:31:05;98153.22;;;30.85;16.59
68996;BME280;56056;48.990;12.146;2022-07-06T11:33:31;98132.94;;;31.48;16.58
68996;BME280;56056;48.990;12.146;2022-07-06T11:36:11;98143.63;;;32.27;15.35
68996;BME280;56056;48.990;12.146;2022-07-06T11:38:36;98142.88;;;32.99;15.50
68996;BME280;56056;48.990;12.146;2022-07-06T11:41:02;98144.59;;;32.95;14.64
68996;BME280;56056;48.990;12.146;2022-07-06T11:43:27;98146.47;;;32.08;14.98
68996;BME280;56056;48.990;12.146;2022-07-06T11:45:53;98144.97;;;31.09;16.36
68996;BME280;56056;48.990;12.146;2022-07-06T11:48:19;98137.53;;;30.82;16.73
68996;BME280;56056;48.990;12.146;2022-07-06T11:50:57;98143.78;;;30.82;17.21
68996;BME280;56056;48.990;12.146;2022-07-06T11:53:23;98150.13;;;31.24;17.09
68996;BME280;56056;48.990;12.146;2022-07-06T11:55:48;98138.69;;;31.13;15.45
68996;BME280;56056;48.990;12.146;2022-07-06T11:58:14;98145.91;;;31.18;15.25
68996;BME280;56056;48.990;12.146;2022-07-06T12:00:39;98134.19;;;31.69;15.17
68996;BME280;56056;48.990;12.146;2022-07-06T12:03:05;98131.44;;;32.52;15.43
68996;BME280;56056;48.990;12.146;2022-07-06T12:05:32;98115.47;;;32.73;15.11
68996;BME280;56056;48.990;12.146;2022-07-06T12:08:04;98130.41;;;33.29;15.04
68996;BME280;56056;48.990;12.146;2022-07-06T12:10:32;98112.41;;;34.21;13.15
68996;BME280;56056;48.990;12.146;2022-07-06T12:13:03;98126.44;;;33.26;14.47
68996;BME280;56056;48.990;12.146;2022-07-06T12:15:28;98132.19;;;32.66;15.36
68996;BME280;56056;48.990;12.146;2022-07-06T12:17:54;98115.56;;;33.04;14.74
68996;BME280;56056;48.990;12.146;2022-07-06T12:20:19;98108.06;;;33.63;13.86
68996;BME280;56056;48.990;12.146;2022-07-06T12:22:46;98119.97;;;34.42;13.84
68996;BME280;56056;48.990;12.146;2022-07-06T12:25:11;98113.75;;;34.59;12.95
68996;BME280;56056;48.990;12.146;2022-07-06T12:27:37;98129.78;;;34.77;12.37
68996;BME280;56056;48.990;12.146;2022-07-06T12:30:08;98117.06;;;34.29;12.86
68996;BME280;56056;48.990;12.146;2022-07-06T12:32:34;98118.19;;;32.73;14.30
68996;BME280;56056;48.990;12.146;2022-07-06T12:35:05;98115.59;;;31.76;16.02
68996;BME280;56056;48.990;12.146;2022-07-06T12:37:31;98117.25;;;31.31;16.11
68996;BME280;56056;48.990;12.146;2022-07-06T12:39:58;98118.63;;;30.96;16.70
68996;BME280;56056;48.990;12.146;2022-07-06T12:42:23;98118.72;;;31.56;16.45
68996;BME280;56056;48.990;12.146;2022-07-06T12:44:50;98120.53;;;32.02;15.71
68996;BME280;56056;48.990;12.146;2022-07-06T12:47:17;98114.06;;;32.25;15.02